sensor_id;sensor_type;location;lat;lon;timestamp;pressure;altitude;pressure_sealevel;temperature;humidity
22930;BME280;11630;42.660;23.292;2023-03-23T00:02:29;68334.69;;;7.23;100.00
22930;BME280;11630;42.660;23.292;2023-03-23T00:04:58;68325.45;;;7.12;100.00
22930;BME280;11630;42.660;23.292;2023-03-23T00:07:29;68321.97;;;7.15;100.00
22930;BME280;11630;42.660;23.292;2023-03-23T00:09:59;68324.38;;;7.11;100.00
22930;BME280;11630;42.660;23.292;2023-03-23T00:12:31;68333.61;;;7.22;100.00
22930;BME280;11630;42.660;23.292;2023-03-23T00:15:09;68336.61;;;7.28;100.00
22930;BME280;11630;42.660;23.292;2023-03-23T00:17:38;68343.10;;;7.29;100.00
22930;BME280;11630;42.660;23.292;2023-03-23T00:20:09;68338.75;;;7.25;100.00
22930;BME280;11630;42.660;23.292;2023-03-23T00:22:39;68338.75;;;7.25;100.00
22930;BME280;11630;42.660;23.292;2023-03-23T00:25:08;68320.05;;;7.12;100.00
22930;BME280;11630;42.660;23.292;2023-03-23T00:27:39;68337.41;;;7.25;100.00
22930;BME280;11630;42.660;23.292;2023-03-23T00:30:10;68344.72;;;7.31;100.00
22930;BME280;11630;42.660;23.292;2023-03-23T00:32:41;68320.31;;;7.08;100.00
22930;BME280;11630;42.660;23.292;2023-03-23T00:35:12;68344.97;;;7.25;100.00
22930;BME280;11630;42.660;23.292;2023-03-23T00:37:43;68339.58;;;7.30;100.00
22930;BME280;11630;42.660;23.292;2023-03-23T00:40:14;68335.52;;;7.25;100.00
22930;BME280;11630;42.660;23.292;2023-03-23T00:42:45;68343.38;;;7.31;100.00
22930;BME280;11630;42.660;23.292;2023-03-23T00:45:17;68327.92;;;7.18;100.00
22930;BME280;11630;42.660;23.292;2023-03-23T00:47:48;68333.61;;;7.22;100.00
22930;BME280;11630;42.660;23.292;2023-03-23T00:50:19;68337.14;;;7.26;100.00
22930;BME280;11630;42.660;23.292;2023-03-23T00:52:50;68343.38;;;7.31;100.00
22930;BME280;11630;42.660;23.292;2023-03-23T00:55:20;68339.84;;;7.29;100.00
22930;BME280;11630;42.660;23.292;2023-03-23T00:57:52;68347.42;;;7.31;100.00
22930;BME280;11630;42.660;23.292;2023-03-23T01:00:23;68334.43;;;7.24;100.00
22930;BME280;11630;42.660;23.292;2023-03-23T01:02:54;68328.46;;;7.18;100.00
22930;BME280;11630;42.660;23.292;2023-03-23T01:05:24;68338.50;;;7.29;100.00
22930;BME280;11630;42.660;23.292;2023-03-23T01:07:54;68359.34;;;7.42;100.00
22930;BME280;11630;42.660;23.292;2023-03-23T01:10:25;68369.94;;;7.53;100.00
22930;BME280;11630;42.660;23.292;2023-03-23T01:12:56;68362.08;;;7.47;100.00
22930;BME280;11630;42.660;23.292;2023-03-23T01:15:28;68355.33;;;7.47;100.00
22930;BME280;11630;42.660;23.292;2023-03-23T01:17:58;68358.03;;;7.47;100.00
22930;BME280;11630;42.660;23.292;2023-03-23T01:20:28;68352.59;;;7.42;100.00
22930;BME280;11630;42.660;23.292;2023-03-23T01:22:59;68337.95;;;7.26;100.00
22930;BME280;11630;42.660;23.292;2023-03-23T01:25:31;68340.38;;;7.27;100.00
22930;BME280;11630;42.660;23.292;2023-03-23T01:28:01;68340.38;;;7.27;100.00
22930;BME280;11630;42.660;23.292;2023-03-23T01:30:32;68335.78;;;7.24;100.00
22930;BME280;11630;42.660;23.292;2023-03-23T01:33:02;68301.38;;;6.96;100.00
22930;BME280;11630;42.660;23.292;2023-03-23T01:35:36;68296.20;;;6.90;100.00
22930;BME280;11630;42.660;23.292;2023-03-23T01:38:05;68305.42;;;6.96;100.00
22930;BME280;11630;42.660;23.292;2023-03-23T01:40:35;68311.66;;;7.03;100.00
22930;BME280;11630;42.660;23.292;2023-03-23T01:43:11;68319.26;;;7.12;100.00
22930;BME280;11630;42.660;23.292;2023-03-23T01:45:41;68278.83;;;6.69;100.00
22930;BME280;11630;42.660;23.292;2023-03-23T01:48:27;68257.17;;;6.54;100.00
22930;BME280;11630;42.660;23.292;2023-03-23T01:53:45;68252.02;;;6.48;100.00
22930;BME280;11630;42.660;23.292;2023-03-23T01:56:13;68252.59;;;6.51;100.00
22930;BME280;11630;42.660;23.292;2023-03-23T01:58:44;68267.70;;;6.55;100.00
22930;BME280;11630;42.660;23.292;2023-03-23T02:01:16;68269.88;;;6.60;100.00
22930;BME280;11630;42.660;23.292;2023-03-23T02:03:47;68256.91;;;6.53;100.00
22930;BME280;11630;42.660;23.292;2023-03-23T02:06:17;68268.28;;;6.63;100.00
22930;BME280;11630;42.660;23.292;2023-03-23T02:08:49;68262.30;;;6.55;100.00
22930;BME280;11630;42.660;23.292;2023-03-23T02:11:22;68280.22;;;6.74;100.00
22930;BME280;11630;42.660;23.292;2023-03-23T02:13:53;68301.59;;;6.90;100.00
22930;BME280;11630;42.660;23.292;2023-03-23T02:16:51;68311.92;;;7.02;100.00
22930;BME280;11630;42.660;23.292;2023-03-23T02:22:37;68295.39;;;6.88;100.00
22930;BME280;11630;42.660;23.292;2023-03-23T02:25:30;68286.45;;;6.81;100.00
22930;BME280;11630;42.660;23.292;2023-03-23T02:33:39;68300.25;;;6.90;100.00
22930;BME280;11630;42.660;23.292;2023-03-23T02:36:19;68324.10;;;7.12;100.00
22930;BME280;11630;42.660;23.292;2023-03-23T02:41:24;68307.86;;;6.99;100.00
22930;BME280;11630;42.660;23.292;2023-03-23T02:43:55;68323.05;;;7.13;100.00
22930;BME280;11630;42.660;23.292;2023-03-23T02:46:27;68334.95;;;7.22;100.00
22930;BME280;11630;42.660;23.292;2023-03-23T02:48:58;68340.38;;;7.27;100.00
22930;BME280;11630;42.660;23.292;2023-03-23T02:51:33;68339.30;;;7.26;100.00
22930;BME280;11630;42.660;23.292;2023-03-23T02:54:06;68339.58;;;7.30;100.00
22930;BME280;11630;42.660;23.292;2023-03-23T02:56:39;68350.70;;;7.36;100.00
22930;BME280;11630;42.660;23.292;2023-03-23T02:59:11;68352.58;;;7.37;100.00
22930;BME280;11630;42.660;23.292;2023-03-23T03:01:50;68321.14;;;7.13;100.00
22930;BME280;11630;42.660;23.292;2023-03-23T03:04:18;68328.19;;;7.17;100.00
22930;BME280;11630;42.660;23.292;2023-03-23T03:12:33;68334.94;;;7.17;100.00
22930;BME280;11630;42.660;23.292;2023-03-23T03:15:25;68351.23;;;7.37;100.00
22930;BME280;11630;42.660;23.292;2023-03-23T03:18:00;68332.50;;;7.16;100.00
22930;BME280;11630;42.660;23.292;2023-03-23T03:20:28;68288.06;;;6.78;100.00
22930;BME280;11630;42.660;23.292;2023-03-23T03:22:59;68322.48;;;7.13;100.00
22930;BME280;11630;42.660;23.292;2023-03-23T03:25:31;68326.84;;;7.17;100.00
22930;BME280;11630;42.660;23.292;2023-03-23T03:28:03;68328.18;;;7.14;100.00
22930;BME280;11630;42.660;23.292;2023-03-23T03:30:35;68335.78;;;7.24;100.00
22930;BME280;11630;42.660;23.292;2023-03-23T03:33:07;68339.84;;;7.29;100.00
22930;BME280;11630;42.660;23.292;2023-03-23T03:35:40;68342.02;;;7.28;100.00
22930;BME280;11630;42.660;23.292;2023-03-23T03:38:12;68349.31;;;7.34;100.00
22930;BME280;11630;42.660;23.292;2023-03-23T03:40:42;68315.73;;;7.08;100.00
22930;BME280;11630;42.660;23.292;2023-03-23T03:43:12;68298.63;;;6.91;100.00
22930;BME280;11630;42.660;23.292;2023-03-23T03:45:46;68298.89;;;6.90;100.00
22930;BME280;11630;42.660;23.292;2023-03-23T03:48:18;68283.45;;;6.77;100.00
22930;BME280;11630;42.660;23.292;2023-03-23T03:50:49;68277.48;;;6.69;100.00
22930;BME280;11630;42.660;23.292;2023-03-23T03:53:20;68292.39;;;6.84;100.00
22930;BME280;11630;42.660;23.292;2023-03-23T03:55:51;68298.89;;;6.87;100.00
22930;BME280;11630;42.660;23.292;2023-03-23T03:58:22;68305.68;;;6.95;100.00
22930;BME280;11630;42.660;23.292;2023-03-23T04:00:53;68299.98;;;6.91;100.00
22930;BME280;11630;42.660;23.292;2023-03-23T04:03:24;68290.22;;;6.82;100.00
22930;BME280;11630;42.660;23.292;2023-03-23T04:05:56;68274.77;;;6.67;100.00
22930;BME280;11630;42.660;23.292;2023-03-23T04:08:26;68240.65;;;6.38;100.00
22930;BME280;11630;42.660;23.292;2023-03-23T04:10:57;68222.77;;;6.21;100.00
22930;BME280;11630;42.660;23.292;2023-03-23T04:13:27;68200.28;;;6.00;100.00
22930;BME280;11630;42.660;23.292;2023-03-23T04:15:58;68182.95;;;5.84;100.00
22930;BME280;11630;42.660;23.292;2023-03-23T04:18:28;68169.13;;;5.72;100.00
22930;BME280;11630;42.660;23.292;2023-03-23T04:21:00;68189.17;;;5.88;100.00
22930;BME280;11630;42.660;23.292;2023-03-23T04:23:31;68192.96;;;5.92;100.00
22930;BME280;11630;42.660;23.292;2023-03-23T04:26:03;68211.37;;;6.08;100.00
22930;BME280;11630;42.660;23.292;2023-03-23T04:28:32;68232.51;;;6.30;100.00
22930;BME280;11630;42.660;23.292;2023-03-23T04:31:03;68255.30;;;6.54;100.00
22930;BME280;11630;42.660;23.292;2023-03-23T04:33:34;68263.67;;;6.60;100.00
22930;BME280;11630;42.660;23.292;2023-03-23T04:36:05;68273.16;;;6.65;100.00
22930;BME280;11630;42.660;23.292;2023-03-23T04:38:35;68286.72;;;6.80;100.00
22930;BME280;11630;42.660;23.292;2023-03-23T04:41:06;68275.05;;;6.68;100.00
22930;BME280;11630;42.660;23.292;2023-03-23T04:43:37;68288.33;;;6.79;100.00
22930;BME280;11630;42.660;23.292;2023-03-23T04:46:08;68302.15;;;6.90;100.00
22930;BME280;11630;42.660;23.292;2023-03-23T04:48:40;68244.70;;;6.40;100.00
22930;BME280;11630;42.660;23.292;2023-03-23T04:51:11;68253.09;;;6.44;100.00
22930;BME280;11630;42.660;23.292;2023-03-23T04:53:41;68268.28;;;6.63;100.00
22930;BME280;11630;42.660;23.292;2023-03-23T04:56:12;68280.74;;;6.72;100.00
22930;BME280;11630;42.660;23.292;2023-03-23T04:58:43;68281.02;;;6.76;100.00
22930;BME280;11630;42.660;23.292;2023-03-23T05:01:13;68294.27;;;6.82;100.00
22930;BME280;11630;42.660;23.292;2023-03-23T05:03:44;68308.64;;;6.94;100.00
22930;BME280;11630;42.660;23.292;2023-03-23T05:06:14;68313.27;;;7.02;100.00
22930;BME280;11630;42.660;23.292;2023-03-23T05:08:45;68251.18;;;6.41;100.00
22930;BME280;11630;42.660;23.292;2023-03-23T05:11:16;68277.48;;;6.69;100.00
22930;BME280;11630;42.660;23.292;2023-03-23T05:13:47;68250.39;;;6.44;100.00
22930;BME280;11630;42.660;23.292;2023-03-23T05:16:18;68240.13;;;6.40;100.00
22930;BME280;11630;42.660;23.292;2023-03-23T05:18:49;68229.01;;;6.28;100.00
22930;BME280;11630;42.660;23.292;2023-03-23T05:21:20;68230.89;;;6.29;100.00
22930;BME280;11630;42.660;23.292;2023-03-23T05:23:50;68236.85;;;6.34;100.00
22930;BME280;11630;42.660;23.292;2023-03-23T05:26:22;68245.78;;;6.41;100.00
22930;BME280;11630;42.660;23.292;2023-03-23T05:28:53;68235.50;;;6.34;100.00
22930;BME280;11630;42.660;23.292;2023-03-23T05:31:23;68226.55;;;6.22;100.00
22930;BME280;11630;42.660;23.292;2023-03-23T05:33:54;68226.52;;;6.20;100.00
22930;BME280;11630;42.660;23.292;2023-03-23T05:36:25;68237.93;;;6.33;100.00
22930;BME280;11630;42.660;23.292;2023-03-23T05:38:56;68243.61;;;6.39;100.00
22930;BME280;11630;42.660;23.292;2023-03-23T05:41:27;68258.83;;;6.58;100.00
22930;BME280;11630;42.660;23.292;2023-03-23T05:43:57;68294.83;;;6.85;100.00
22930;BME280;11630;42.660;23.292;2023-03-23T05:46:29;68318.16;;;7.06;100.00
22930;BME280;11630;42.660;23.292;2023-03-23T05:48:59;68321.14;;;7.13;100.00
22930;BME280;11630;42.660;23.292;2023-03-23T05:51:30;68321.95;;;7.10;100.00
22930;BME280;11630;42.660;23.292;2023-03-23T05:54:02;68355.00;;;7.35;100.00
22930;BME280;11630;42.660;23.292;2023-03-23T05:56:33;68334.95;;;7.22;100.00
22930;BME280;11630;42.660;23.292;2023-03-23T05:59:04;68325.19;;;7.13;100.00
22930;BME280;11630;42.660;23.292;2023-03-23T06:01:34;68345.00;;;7.35;100.00
22930;BME280;11630;42.660;23.292;2023-03-23T06:04:04;68328.72;;;7.15;100.00
22930;BME280;11630;42.660;23.292;2023-03-23T06:06:35;68320.05;;;7.09;100.00
22930;BME280;11630;42.660;23.292;2023-03-23T06:09:06;68323.84;;;7.13;100.00
22930;BME280;11630;42.660;23.292;2023-03-23T06:11:37;68320.31;;;7.08;100.00
22930;BME280;11630;42.660;23.292;2023-03-23T06:14:08;68326.28;;;7.16;100.00
22930;BME280;11630;42.660;23.292;2023-03-23T06:16:38;68335.79;;;7.26;100.00
22930;BME280;11630;42.660;23.292;2023-03-23T06:19:09;68350.43;;;7.37;100.00
22930;BME280;11630;42.660;23.292;2023-03-23T06:21:40;68444.02;;;8.19;100.00
22930;BME280;11630;42.660;23.292;2023-03-23T06:24:11;68708.14;;;10.66;100.00
22930;BME280;11630;42.660;23.292;2023-03-23T06:26:41;68598.03;;;9.71;100.00
22930;BME280;11630;42.660;23.292;2023-03-23T06:29:12;68605.08;;;9.70;100.00
22930;BME280;11630;42.660;23.292;2023-03-23T06:31:48;68560.26;;;9.28;100.00
22930;BME280;11630;42.660;23.292;2023-03-23T06:34:18;68523.88;;;9.00;100.00
22930;BME280;11630;42.660;23.292;2023-03-23T06:36:49;68515.97;;;8.89;100.00
22930;BME280;11630;42.660;23.292;2023-03-23T06:39:19;68506.74;;;8.78;100.00
22930;BME280;11630;42.660;23.292;2023-03-23T06:41:50;68502.94;;;8.74;100.00
22930;BME280;11630;42.660;23.292;2023-03-23T06:44:21;68499.97;;;8.73;100.00
22930;BME280;11630;42.660;23.292;2023-03-23T06:46:52;68525.75;;;8.98;100.00
22930;BME280;11630;42.660;23.292;2023-03-23T06:49:23;68544.48;;;9.11;100.00
22930;BME280;11630;42.660;23.292;2023-03-23T06:51:54;68544.48;;;9.11;100.00
22930;BME280;11630;42.660;23.292;2023-03-23T06:54:25;68581.69;;;9.41;100.00
22930;BME280;11630;42.660;23.292;2023-03-23T06:56:56;68595.31;;;9.61;100.00
22930;BME280;11630;42.660;23.292;2023-03-23T06:59:27;68548.59;;;9.21;100.00
22930;BME280;11630;42.660;23.292;2023-03-23T07:01:58;68582.81;;;9.52;100.00
22930;BME280;11630;42.660;23.292;2023-03-23T07:04:29;68588.23;;;9.52;100.00
22930;BME280;11630;42.660;23.292;2023-03-23T07:06:59;68621.13;;;9.89;100.00
22930;BME280;11630;42.660;23.292;2023-03-23T07:09:30;68640.98;;;10.03;100.00
22930;BME280;11630;42.660;23.292;2023-03-23T07:12:01;68651.58;;;10.14;100.00
22930;BME280;11630;42.660;23.292;2023-03-23T07:14:31;68660.02;;;10.18;100.00
22930;BME280;11630;42.660;23.292;2023-03-23T07:17:03;68670.88;;;10.25;100.00
22930;BME280;11630;42.660;23.292;2023-03-23T07:19:33;68666.54;;;10.29;100.00
22930;BME280;11630;42.660;23.292;2023-03-23T07:22:06;68691.84;;;10.53;100.00
22930;BME280;11630;42.660;23.292;2023-03-23T07:24:36;68724.73;;;10.77;100.00
22930;BME280;11630;42.660;23.292;2023-03-23T07:27:07;68723.11;;;10.75;100.00
22930;BME280;11630;42.660;23.292;2023-03-23T07:29:37;68734.53;;;10.88;100.00
22930;BME280;11630;42.660;23.292;2023-03-23T07:32:10;68775.06;;;11.19;100.00
22930;BME280;11630;42.660;23.292;2023-03-23T07:34:41;68779.44;;;11.28;100.00
22930;BME280;11630;42.660;23.292;2023-03-23T07:37:12;68757.67;;;11.13;100.00
22930;BME280;11630;42.660;23.292;2023-03-23T07:39:43;68763.11;;;11.13;100.00
22930;BME280;11630;42.660;23.292;2023-03-23T07:42:13;68785.16;;;11.37;100.00
22930;BME280;11630;42.660;23.292;2023-03-23T07:44:43;68807.75;;;11.54;100.00
22930;BME280;11630;42.660;23.292;2023-03-23T07:47:13;68829.28;;;11.75;100.00
22930;BME280;11630;42.660;23.292;2023-03-23T07:49:44;68840.98;;;11.84;100.00
22930;BME280;11630;42.660;23.292;2023-03-23T07:52:15;68847.52;;;11.93;100.00
22930;BME280;11630;42.660;23.292;2023-03-23T07:54:46;68867.66;;;12.11;100.00
22930;BME280;11630;42.660;23.292;2023-03-23T07:57:17;68890.00;;;12.29;100.00
22930;BME280;11630;42.660;23.292;2023-03-23T07:59:48;68907.44;;;12.50;100.00
22930;BME280;11630;42.660;23.292;2023-03-23T08:02:18;68915.07;;;12.52;100.00
22930;BME280;11630;42.660;23.292;2023-03-23T08:04:48;68910.98;;;12.49;100.00
22930;BME280;11630;42.660;23.292;2023-03-23T08:07:19;68950.47;;;12.79;100.00
22930;BME280;11630;42.660;23.292;2023-03-23T08:09:50;68971.48;;;13.02;100.00
22930;BME280;11630;42.660;23.292;2023-03-23T08:12:21;68940.68;;;12.70;100.00
22930;BME280;11630;42.660;23.292;2023-03-23T08:14:52;68949.93;;;12.84;100.00
22930;BME280;11630;42.660;23.292;2023-03-23T08:17:23;68997.94;;;13.30;100.00
22930;BME280;11630;42.660;23.292;2023-03-23T08:19:53;69028.48;;;13.53;100.00
22930;BME280;11630;42.660;23.292;2023-03-23T08:22:24;68956.20;;;12.86;100.00
22930;BME280;11630;42.660;23.292;2023-03-23T08:24:55;69005.83;;;13.31;100.00
22930;BME280;11630;42.660;23.292;2023-03-23T08:27:26;69002.30;;;13.29;100.00
22930;BME280;11630;42.660;23.292;2023-03-23T08:29:56;69002.29;;;13.36;100.00
22930;BME280;11630;42.660;23.292;2023-03-23T08:32:28;68949.11;;;12.79;100.00
22930;BME280;11630;42.660;23.292;2023-03-23T08:34:58;69007.20;;;13.38;100.00
22930;BME280;11630;42.660;23.292;2023-03-23T08:37:28;69077.56;;;13.97;100.00
22930;BME280;11630;42.660;23.292;2023-03-23T08:39:59;69023.02;;;13.50;100.00
22930;BME280;11630;42.660;23.292;2023-03-23T08:42:30;69116.88;;;14.36;100.00
22930;BME280;11630;42.660;23.292;2023-03-23T08:45:01;69153.73;;;14.68;91.41
22930;BME280;11630;42.660;23.292;2023-03-23T08:47:33;69196.86;;;15.05;89.67
22930;BME280;11630;42.660;23.292;2023-03-23T08:50:04;69190.84;;;15.02;86.32
22930;BME280;11630;42.660;23.292;2023-03-23T08:52:35;69256.42;;;15.59;78.99
22930;BME280;11630;42.660;23.292;2023-03-23T08:55:07;69261.33;;;15.68;79.24
22930;BME280;11630;42.660;23.292;2023-03-23T08:57:38;69188.11;;;15.02;73.76
22930;BME280;11630;42.660;23.292;2023-03-23T09:00:10;69224.48;;;15.29;76.18
22930;BME280;11630;42.660;23.292;2023-03-23T09:02:49;69274.44;;;15.78;72.58
22930;BME280;11630;42.660;23.292;2023-03-23T09:05:22;69248.48;;;15.58;75.47
22930;BME280;11630;42.660;23.292;2023-03-23T09:07:53;69274.72;;;15.82;74.79
22930;BME280;11630;42.660;23.292;2023-03-23T09:10:24;69263.80;;;15.67;70.67
22930;BME280;11630;42.660;23.292;2023-03-23T09:12:56;69207.23;;;15.17;69.08
22930;BME280;11630;42.660;23.292;2023-03-23T09:15:27;69145.80;;;14.64;72.00
22930;BME280;11630;42.660;23.292;2023-03-23T09:17:57;69105.14;;;14.29;76.35
22930;BME280;11630;42.660;23.292;2023-03-23T09:20:29;69059.02;;;13.81;78.09
22930;BME280;11630;42.660;23.292;2023-03-23T09:23:00;69087.66;;;14.05;77.75
22930;BME280;11630;42.660;23.292;2023-03-23T09:25:31;69152.91;;;14.66;75.67
22930;BME280;11630;42.660;23.292;2023-03-23T09:28:01;69187.28;;;15.07;75.87
22930;BME280;11630;42.660;23.292;2023-03-23T09:30:33;69224.73;;;15.33;72.28
22930;BME280;11630;42.660;23.292;2023-03-23T09:33:04;69287.85;;;15.86;70.08
22930;BME280;11630;42.660;23.292;2023-03-23T09:35:36;69295.80;;;15.82;66.39
22930;BME280;11630;42.660;23.292;2023-03-23T09:38:11;69322.55;;;16.24;66.85
22930;BME280;11630;42.660;23.292;2023-03-23T09:40:46;69250.95;;;15.56;68.69
22930;BME280;11630;42.660;23.292;2023-03-23T09:49:11;69155.08;;;14.73;70.68
22930;BME280;11630;42.660;23.292;2023-03-23T09:52:04;69161.92;;;14.78;72.28
22930;BME280;11630;42.660;23.292;2023-03-23T09:54:38;69168.73;;;14.83;70.95
22930;BME280;11630;42.660;23.292;2023-03-23T10:00:12;69188.13;;;14.97;69.97
22930;BME280;11630;42.660;23.292;2023-03-23T10:05:39;69220.09;;;15.32;66.15
22930;BME280;11630;42.660;23.292;2023-03-23T10:08:14;69274.20;;;15.71;67.16
22930;BME280;11630;42.660;23.292;2023-03-23T10:11:02;69346.63;;;16.38;64.63
22930;BME280;11630;42.660;23.292;2023-03-23T10:16:15;69401.83;;;16.96;59.67
22930;BME280;11630;42.660;23.292;2023-03-23T10:18:46;69450.84;;;17.37;59.40
22930;BME280;11630;42.660;23.292;2023-03-23T10:21:21;69418.55;;;17.02;61.62
22930;BME280;11630;42.660;23.292;2023-03-23T10:24:03;69474.91;;;17.61;59.69
22930;BME280;11630;42.660;23.292;2023-03-23T10:29:28;69453.58;;;17.39;57.74
22930;BME280;11630;42.660;23.292;2023-03-23T10:31:59;69516.55;;;17.89;54.05
22930;BME280;11630;42.660;23.292;2023-03-23T10:34:49;69525.27;;;18.07;55.55
22930;BME280;11630;42.660;23.292;2023-03-23T10:37:25;69556.81;;;18.27;56.35
22930;BME280;11630;42.660;23.292;2023-03-23T10:39:59;69539.56;;;18.05;54.91
22930;BME280;11630;42.660;23.292;2023-03-23T10:42:33;69582.25;;;18.56;51.73
22930;BME280;11630;42.660;23.292;2023-03-23T10:45:26;69579.52;;;18.51;54.05
22930;BME280;11630;42.660;23.292;2023-03-23T10:48:10;69617.34;;;18.80;49.56
22930;BME280;11630;42.660;23.292;2023-03-23T10:50:41;69647.48;;;19.13;49.06
22930;BME280;11630;42.660;23.292;2023-03-23T10:53:23;69630.72;;;19.01;49.31
22930;BME280;11630;42.660;23.292;2023-03-23T10:55:54;69605.55;;;18.73;51.30
22930;BME280;11630;42.660;23.292;2023-03-23T10:58:30;69612.68;;;18.80;49.95
22930;BME280;11630;42.660;23.292;2023-03-23T11:01:03;69605.00;;;18.75;49.95
22930;BME280;11630;42.660;23.292;2023-03-23T11:03:39;69621.17;;;18.86;51.62
22930;BME280;11630;42.660;23.292;2023-03-23T11:06:10;69640.33;;;19.11;49.50
22930;BME280;11630;42.660;23.292;2023-03-23T11:08:55;69677.86;;;19.44;49.18
22930;BME280;11630;42.660;23.292;2023-03-23T11:11:31;69623.59;;;18.97;49.75
22930;BME280;11630;42.660;23.292;2023-03-23T11:16:52;69518.67;;;18.06;53.35
22930;BME280;11630;42.660;23.292;2023-03-23T11:19:35;69617.91;;;18.78;50.08
22930;BME280;11630;42.660;23.292;2023-03-23T11:22:07;69641.45;;;19.02;48.62
22930;BME280;11630;42.660;23.292;2023-03-23T11:24:42;69557.35;;;18.30;51.04
22930;BME280;11630;42.660;23.292;2023-03-23T11:27:13;69666.18;;;19.17;47.45
22930;BME280;11630;42.660;23.292;2023-03-23T11:32:45;69603.90;;;18.74;48.82
22930;BME280;11630;42.660;23.292;2023-03-23T11:35:19;69494.67;;;17.67;50.75
22930;BME280;11630;42.660;23.292;2023-03-23T11:37:51;69600.11;;;18.61;51.55
22930;BME280;11630;42.660;23.292;2023-03-23T11:40:22;69641.43;;;19.12;49.08
22930;BME280;11630;42.660;23.292;2023-03-23T11:43:12;69589.36;;;18.62;50.21
22930;BME280;11630;42.660;23.292;2023-03-23T11:45:47;69648.82;;;19.20;47.58
22930;BME280;11630;42.660;23.292;2023-03-23T11:56:38;69751.15;;;20.02;45.31
22930;BME280;11630;42.660;23.292;2023-03-23T11:59:17;69750.55;;;20.06;44.73
22930;BME280;11630;42.660;23.292;2023-03-23T12:02:03;69770.38;;;20.11;43.69
22930;BME280;11630;42.660;23.292;2023-03-23T12:10:22;69590.97;;;18.71;48.07
22930;BME280;11630;42.660;23.292;2023-03-23T12:21:27;69697.06;;;19.59;46.24
22930;BME280;11630;42.660;23.292;2023-03-23T12:24:17;69732.70;;;19.94;44.95
22930;BME280;11630;42.660;23.292;2023-03-23T12:26:54;69569.07;;;18.52;48.46
22930;BME280;11630;42.660;23.292;2023-03-23T12:29:33;69663.59;;;19.36;47.39
22930;BME280;11630;42.660;23.292;2023-03-23T12:35:01;69663.36;;;19.30;45.57
22930;BME280;11630;42.660;23.292;2023-03-23T12:43:26;69801.30;;;20.53;43.55
22930;BME280;11630;42.660;23.292;2023-03-23T12:48:59;69847.14;;;20.91;41.64
22930;BME280;11630;42.660;23.292;2023-03-23T12:51:47;69916.92;;;21.47;40.88
22930;BME280;11630;42.660;23.292;2023-03-23T12:54:22;69957.63;;;21.78;40.29
22930;BME280;11630;42.660;23.292;2023-03-23T12:59:43;70013.72;;;22.22;38.72
22930;BME280;11630;42.660;23.292;2023-03-23T13:02:25;69962.99;;;21.98;40.20
22930;BME280;11630;42.660;23.292;2023-03-23T13:08:03;69966.94;;;21.89;39.73
22930;BME280;11630;42.660;23.292;2023-03-23T13:10:38;69991.34;;;22.18;38.51
22930;BME280;11630;42.660;23.292;2023-03-23T13:13:03;70006.52;;;22.23;38.41
22930;BME280;11630;42.660;23.292;2023-03-23T13:18:42;69993.27;;;22.18;38.34
22930;BME280;11630;42.660;23.292;2023-03-23T13:21:14;70020.51;;;22.39;37.94
22930;BME280;11630;42.660;23.292;2023-03-23T13:26:22;69855.36;;;21.01;39.45
22930;BME280;11630;42.660;23.292;2023-03-23T13:29:00;69909.47;;;21.44;38.92
22930;BME280;11630;42.660;23.292;2023-03-23T13:31:34;69954.89;;;21.73;39.17
22930;BME280;11630;42.660;23.292;2023-03-23T13:34:10;69928.13;;;21.66;39.97
22930;BME280;11630;42.660;23.292;2023-03-23T13:36:38;69907.29;;;21.42;40.40
22930;BME280;11630;42.660;23.292;2023-03-23T13:39:21;69914.67;;;21.52;39.33
22930;BME280;11630;42.660;23.292;2023-03-23T13:44:53;70013.97;;;22.23;37.58
22930;BME280;11630;42.660;23.292;2023-03-23T13:47:28;69956.20;;;21.83;38.04
22930;BME280;11630;42.660;23.292;2023-03-23T13:50:01;69961.97;;;21.87;38.54
22930;BME280;11630;42.660;23.292;2023-03-23T13:52:53;69970.38;;;22.09;38.76
22930;BME280;11630;42.660;23.292;2023-03-23T13:55:40;69915.16;;;21.63;39.65
22930;BME280;11630;42.660;23.292;2023-03-23T13:58:11;69911.11;;;21.48;39.67
22930;BME280;11630;42.660;23.292;2023-03-23T14:00:49;69906.09;;;21.56;39.21
22930;BME280;11630;42.660;23.292;2023-03-23T14:06:04;69943.27;;;21.75;40.48
22930;BME280;11630;42.660;23.292;2023-03-23T14:08:39;69960.34;;;21.83;38.71
22930;BME280;11630;42.660;23.292;2023-03-23T14:11:14;69979.50;;;22.08;39.79
22930;BME280;11630;42.660;23.292;2023-03-23T14:13:58;69909.52;;;21.39;40.18
22930;BME280;11630;42.660;23.292;2023-03-23T14:16:24;69928.70;;;21.64;39.65
22930;BME280;11630;42.660;23.292;2023-03-23T14:18:59;69821.30;;;20.73;41.54
22930;BME280;11630;42.660;23.292;2023-03-23T14:21:34;69818.09;;;20.57;42.16
22930;BME280;11630;42.660;23.292;2023-03-23T14:24:19;69849.60;;;20.94;41.02
22930;BME280;11630;42.660;23.292;2023-03-23T14:26:39;69827.64;;;20.75;40.35
22930;BME280;11630;42.660;23.292;2023-03-23T14:29:11;69827.08;;;20.79;41.06
22930;BME280;11630;42.660;23.292;2023-03-23T14:31:42;69803.75;;;20.54;41.25
22930;BME280;11630;42.660;23.292;2023-03-23T14:34:15;69831.22;;;20.79;41.08
22930;BME280;11630;42.660;23.292;2023-03-23T14:36:47;69851.50;;;21.00;41.31
22930;BME280;11630;42.660;23.292;2023-03-23T14:39:28;69874.31;;;21.17;40.02
22930;BME280;11630;42.660;23.292;2023-03-23T14:42:10;69866.54;;;21.20;41.06
22930;BME280;11630;42.660;23.292;2023-03-23T14:44:50;69849.66;;;20.87;40.58
22930;BME280;11630;42.660;23.292;2023-03-23T14:47:22;69850.47;;;20.91;41.38
22930;BME280;11630;42.660;23.292;2023-03-23T14:49:57;69820.73;;;20.75;41.65
22930;BME280;11630;42.660;23.292;2023-03-23T14:52:33;69859.88;;;20.90;41.18